createdAt,value
2018-09-21T00:01:20.821Z,56.50
2018-09-21T00:03:56.967Z,56.60
2018-09-21T00:06:27.308Z,56.60
2018-09-21T00:08:57.890Z,56.70
2018-09-21T00:11:28.966Z,56.70
2018-09-21T00:13:59.532Z,56.70
2018-09-21T00:16:29.916Z,56.80
2018-09-21T00:19:07.136Z,56.90
2018-09-21T00:21:37.946Z,56.90
2018-09-21T00:24:12.057Z,56.90
2018-09-21T00:26:42.553Z,57.00
2018-09-21T00:29:12.943Z,57.10
2018-09-21T00:31:43.307Z,57.00
2018-09-21T00:34:13.689Z,57.30
2018-09-21T00:36:44.310Z,57.50
2018-09-21T00:39:15.317Z,57.60
2018-09-21T00:41:46.168Z,57.90
2018-09-21T00:44:16.836Z,57.70
2018-09-21T00:46:47.498Z,57.50
2018-09-21T00:49:17.933Z,57.60
2018-09-21T00:51:48.426Z,57.60
2018-09-21T00:54:19.024Z,58.20
2018-09-21T00:56:49.440Z,57.30
2018-09-21T00:59:20.026Z,57.10
2018-09-21T01:01:50.469Z,57.00
2018-09-21T01:04:21.160Z,56.90
2018-09-21T01:06:51.512Z,57.00
2018-09-21T01:09:22.146Z,57.20
2018-09-21T01:11:52.738Z,57.20
2018-09-21T01:14:23.362Z,57.00
2018-09-21T01:16:53.754Z,57.00
2018-09-21T01:19:27.819Z,57.30
2018-09-21T01:22:03.563Z,57.30
2018-09-21T01:24:34.647Z,57.60
2018-09-21T01:27:05.119Z,57.60
2018-09-21T01:29:35.726Z,57.80
2018-09-21T01:32:06.351Z,57.90
2018-09-21T01:34:36.857Z,57.80
2018-09-21T01:37:07.419Z,57.80
2018-09-21T01:39:37.948Z,57.90
2018-09-21T01:42:08.530Z,58.50
2018-09-21T01:44:40.048Z,58.50
2018-09-21T01:47:11.065Z,58.50
2018-09-21T01:49:41.493Z,58.80
2018-09-21T01:52:11.943Z,58.90
2018-09-21T01:54:42.474Z,58.80
2018-09-21T01:57:13.570Z,58.60
2018-09-21T01:59:43.958Z,58.50
2018-09-21T02:02:14.382Z,58.60
2018-09-21T02:04:44.758Z,58.60
2018-09-21T02:07:15.022Z,58.70
2018-09-21T02:09:45.758Z,58.80
2018-09-21T02:12:16.172Z,59.00
2018-09-21T02:14:46.644Z,58.70
2018-09-21T02:17:16.903Z,58.50
2018-09-21T02:19:47.732Z,58.60
2018-09-21T02:22:21.311Z,58.60
2018-09-21T02:24:51.938Z,58.60
2018-09-21T02:27:22.230Z,58.70
2018-09-21T02:29:52.598Z,59.50
2018-09-21T02:32:22.901Z,60.00
2018-09-21T02:34:53.374Z,60.80
2018-09-21T02:37:23.752Z,61.20
2018-09-21T02:39:54.176Z,61.10
2018-09-21T02:42:24.585Z,61.50
2018-09-21T02:44:55.174Z,59.90
2018-09-21T02:47:26.074Z,59.60
2018-09-21T02:49:56.518Z,59.30
2018-09-21T02:52:27.224Z,59.10
2018-09-21T02:54:57.631Z,59.20
2018-09-21T02:57:28.144Z,59.30
2018-09-21T03:00:00.281Z,59.20
2018-09-21T03:02:30.622Z,59.20
2018-09-21T03:05:01.529Z,59.10
2018-09-21T03:07:32.057Z,59.40
2018-09-21T03:10:03.098Z,59.20
2018-09-21T03:12:33.551Z,59.10
2018-09-21T03:15:04.030Z,58.90
2018-09-21T03:17:34.518Z,58.40
2018-09-21T03:20:05.110Z,58.30
2018-09-21T03:22:35.582Z,58.50
2018-09-21T03:25:06.318Z,58.80
2018-09-21T03:27:37.209Z,59.00
2018-09-21T03:30:07.662Z,59.00
2018-09-21T03:32:38.088Z,59.20
2018-09-21T03:35:08.871Z,59.30
2018-09-21T03:37:39.225Z,59.60
2018-09-21T03:40:09.846Z,59.80
2018-09-21T03:42:40.264Z,59.60
2018-09-21T03:45:11.032Z,59.60
2018-09-21T03:47:41.321Z,59.60
2018-09-21T03:50:11.537Z,60.00
2018-09-21T03:52:42.004Z,59.60
2018-09-21T03:55:12.482Z,59.60
2018-09-21T03:57:42.731Z,59.50
2018-09-21T04:00:13.118Z,59.40
2018-09-21T04:02:43.701Z,59.30
2018-09-21T04:05:14.055Z,59.00
2018-09-21T04:07:44.361Z,59.10
2018-09-21T04:10:14.670Z,59.20
2018-09-21T04:12:44.950Z,59.60
2018-09-21T04:15:15.214Z,60.10
2018-09-21T04:17:45.558Z,60.50
2018-09-21T04:20:15.827Z,60.60
2018-09-21T04:22:53.752Z,60.70
2018-09-21T04:25:24.023Z,60.70
2018-09-21T04:27:55.282Z,60.80
2018-09-21T04:30:26.285Z,61.80
2018-09-21T04:32:57.592Z,61.10
2018-09-21T04:35:28.039Z,61.30
2018-09-21T04:37:58.512Z,61.30
2018-09-21T04:40:28.814Z,61.40
2018-09-21T04:42:59.190Z,61.50
2018-09-21T04:45:29.602Z,61.60
2018-09-21T04:48:00.055Z,61.50
2018-09-21T04:50:30.355Z,61.40
2018-09-21T04:53:01.066Z,61.30
2018-09-21T04:55:31.355Z,61.30
2018-09-21T04:58:02.134Z,61.20
2018-09-21T05:00:32.522Z,61.50
2018-09-21T05:03:03.074Z,61.60
2018-09-21T05:05:33.390Z,61.60
2018-09-21T05:08:04.031Z,61.60
2018-09-21T05:10:34.374Z,61.70
2018-09-21T05:13:04.750Z,61.70
2018-09-21T05:15:35.315Z,61.30
2018-09-21T05:18:05.758Z,61.50
2018-09-21T05:20:36.635Z,61.50
2018-09-21T05:23:10.918Z,61.50
2018-09-21T05:25:41.189Z,62.20
2018-09-21T05:28:11.873Z,62.60
2018-09-21T05:30:42.205Z,62.50
2018-09-21T05:33:13.328Z,62.10
2018-09-21T05:35:43.682Z,62.00
2018-09-21T05:38:14.090Z,61.70
2018-09-21T05:40:44.414Z,61.40
2018-09-21T05:43:14.665Z,60.10
2018-09-21T05:45:44.943Z,60.10
2018-09-21T05:48:15.256Z,59.90
2018-09-21T05:50:45.541Z,59.70
2018-09-21T05:53:15.933Z,59.80
2018-09-21T05:55:46.291Z,60.00
2018-09-21T05:58:16.574Z,60.30
2018-09-21T06:00:46.852Z,60.50
2018-09-21T06:03:17.370Z,60.20
2018-09-21T06:05:47.881Z,60.10
2018-09-21T06:08:18.334Z,59.90
2018-09-21T06:10:48.601Z,60.20
2018-09-21T06:13:18.952Z,60.00
2018-09-21T06:15:49.274Z,60.20
2018-09-21T06:18:21.735Z,60.10
2018-09-21T06:20:52.380Z,59.90
2018-09-21T06:23:23.549Z,59.70
2018-09-21T06:25:54.993Z,60.30
2018-09-21T06:28:27.273Z,60.80
2018-09-21T06:30:58.470Z,61.40
2018-09-21T06:33:29.303Z,60.70
2018-09-21T06:36:05.467Z,59.00
2018-09-21T06:38:42.474Z,58.70
2018-09-21T06:41:14.055Z,60.70
2018-09-21T06:43:49.549Z,61.20
2018-09-21T06:46:21.674Z,60.60
2018-09-21T06:48:52.078Z,60.20
2018-09-21T06:51:22.464Z,61.00
2018-09-21T06:53:53.024Z,62.20
2018-09-21T06:56:24.989Z,63.00
2018-09-21T06:58:55.430Z,62.90
2018-09-21T07:01:25.924Z,62.40
2018-09-21T07:03:57.058Z,61.60
2018-09-21T07:06:27.434Z,60.60
2018-09-21T07:08:58.056Z,59.30
2018-09-21T07:11:28.581Z,58.70
2018-09-21T07:13:59.874Z,58.30
2018-09-21T07:16:30.421Z,57.60
2018-09-21T07:19:00.770Z,57.30
2018-09-21T07:21:31.195Z,57.10
2018-09-21T07:24:31.818Z,56.00
2018-09-21T07:27:04.413Z,55.70
2018-09-21T07:29:34.881Z,55.10
2018-09-21T07:32:05.373Z,54.50
2018-09-21T07:34:35.740Z,54.80
2018-09-21T07:37:06.045Z,54.10
2018-09-21T07:39:36.534Z,53.60
2018-09-21T07:42:06.678Z,54.10
2018-09-21T07:44:37.165Z,53.20
2018-09-21T07:47:07.435Z,52.50
2018-09-21T07:49:37.744Z,52.00
2018-09-21T07:52:08.012Z,51.30
2018-09-21T07:54:39.532Z,50.60
2018-09-21T07:57:10.031Z,50.30
2018-09-21T07:59:40.352Z,49.80
2018-09-21T08:02:10.853Z,49.20
2018-09-21T08:04:41.228Z,48.50
2018-09-21T08:07:11.697Z,48.30
2018-09-21T08:09:42.018Z,47.90
2018-09-21T08:12:12.373Z,47.60
2018-09-21T08:14:42.680Z,47.30
2018-09-21T08:17:13.390Z,46.90
2018-09-21T08:19:43.866Z,46.50
2018-09-21T08:22:14.558Z,46.20
2018-09-21T08:24:44.913Z,45.20
2018-09-21T08:27:16.991Z,44.40
2018-09-21T08:29:47.745Z,43.60
2018-09-21T08:32:18.073Z,42.40
2018-09-21T08:34:48.420Z,41.50
2018-09-21T08:37:18.911Z,40.20
2018-09-21T08:39:49.204Z,39.10
2018-09-21T08:42:19.502Z,38.50
2018-09-21T08:44:49.883Z,37.80
2018-09-21T08:47:20.195Z,36.70
2018-09-21T08:49:50.813Z,36.70
2018-09-21T08:52:21.087Z,36.40
2018-09-21T08:54:51.612Z,35.90
2018-09-21T08:57:21.902Z,35.80
2018-09-21T08:59:52.266Z,35.80
2018-09-21T09:02:22.705Z,34.80
2018-09-21T09:04:53.039Z,34.60
2018-09-21T09:07:23.714Z,34.60
2018-09-21T09:09:54.174Z,35.10
2018-09-21T09:12:24.654Z,35.80
2018-09-21T09:14:55.055Z,36.00
2018-09-21T09:17:25.450Z,36.40
2018-09-21T09:19:56.058Z,36.50
2018-09-21T09:22:26.363Z,36.80
2018-09-21T09:24:56.827Z,36.60
2018-09-21T09:27:27.626Z,36.00
2018-09-21T09:29:58.399Z,35.20
2018-09-21T09:32:28.713Z,35.00
2018-09-21T09:34:59.665Z,34.90
2018-09-21T09:37:30.145Z,32.90
2018-09-21T09:40:00.795Z,31.30
2018-09-21T09:42:31.850Z,30.70
2018-09-21T09:45:02.356Z,28.80
2018-09-21T09:47:33.514Z,26.00
2018-09-21T09:50:03.936Z,25.70
2018-09-21T09:52:34.419Z,24.40
2018-09-21T09:55:05.601Z,23.80
2018-09-21T09:57:36.025Z,23.90
2018-09-21T10:00:08.557Z,23.40
2018-09-21T10:02:39.701Z,23.40
2018-09-21T10:05:11.709Z,20.60
2018-09-21T10:07:50.266Z,19.80
2018-09-21T10:10:24.349Z,20.00
2018-09-21T10:12:58.430Z,20.10
2018-09-21T10:15:29.249Z,21.00
2018-09-21T10:18:00.618Z,21.90
2018-09-21T10:20:30.942Z,21.10
2018-09-21T10:23:01.388Z,22.10
2018-09-21T10:25:32.306Z,21.80
2018-09-21T10:28:03.233Z,20.90
2018-09-21T10:30:36.287Z,20.60
2018-09-21T10:33:08.161Z,19.80
2018-09-21T10:35:39.066Z,19.90
2018-09-21T10:38:09.529Z,18.80
2018-09-21T10:40:39.867Z,18.80
2018-09-21T10:43:10.925Z,20.00
2018-09-21T10:45:41.176Z,20.10
2018-09-21T10:48:11.742Z,20.00
2018-09-21T10:50:42.182Z,19.70
2018-09-21T10:53:12.997Z,19.60
2018-09-21T10:55:43.520Z,19.90
2018-09-21T10:58:14.394Z,18.90
2018-09-21T11:00:45.829Z,19.10
2018-09-21T11:03:16.210Z,19.80
2018-09-21T11:05:46.793Z,19.10
2018-09-21T11:08:17.154Z,19.40
2018-09-21T11:10:47.642Z,19.30
2018-09-21T11:13:18.151Z,19.30
2018-09-21T11:15:48.672Z,19.40
2018-09-21T11:18:19.325Z,19.90
2018-09-21T11:20:49.969Z,20.90
2018-09-21T11:23:20.470Z,22.00
2018-09-21T11:25:51.438Z,21.60
2018-09-21T11:28:21.974Z,21.50
2018-09-21T11:30:52.647Z,21.70
2018-09-21T11:33:23.310Z,21.50
2018-09-21T11:36:16.253Z,22.00
2018-09-21T11:40:16.368Z,23.00
2018-09-21T11:42:46.861Z,22.60
2018-09-21T11:45:17.267Z,21.50
2018-09-21T11:47:47.994Z,20.70
2018-09-21T11:50:18.631Z,20.40
2018-09-21T11:52:49.271Z,20.30
2018-09-21T11:55:20.750Z,22.30
2018-09-21T11:57:52.668Z,23.50
2018-09-21T12:00:23.976Z,24.80
2018-09-21T12:02:55.128Z,25.60
2018-09-21T12:05:26.419Z,25.50
2018-09-21T12:07:56.991Z,26.30
2018-09-21T12:10:27.300Z,26.00
2018-09-21T12:12:57.645Z,26.10
2018-09-21T12:15:28.218Z,26.40
2018-09-21T12:18:09.615Z,26.50
2018-09-21T12:20:48.221Z,26.40
2018-09-21T12:26:30.170Z,27.10
2018-09-21T12:29:03.862Z,26.40
2018-09-21T12:31:34.429Z,26.60
2018-09-21T12:34:11.034Z,26.20
2018-09-21T12:36:41.488Z,26.90
2018-09-21T12:39:14.037Z,28.10
2018-09-21T12:41:44.782Z,28.80
2018-09-21T12:44:19.762Z,28.20
2018-09-21T12:46:50.172Z,27.30
2018-09-21T12:49:21.108Z,27.50
2018-09-21T12:51:51.650Z,27.30
2018-09-21T12:54:23.502Z,26.40
2018-09-21T12:57:02.802Z,25.90
2018-09-21T12:59:34.491Z,25.40
2018-09-21T13:02:10.240Z,26.20
2018-09-21T13:04:40.927Z,26.50
2018-09-21T13:07:11.653Z,26.50
2018-09-21T13:09:42.210Z,26.90
2018-09-21T13:12:13.198Z,27.70
2018-09-21T13:14:43.581Z,27.70
2018-09-21T13:17:14.030Z,27.90
2018-09-21T13:19:44.578Z,27.80
2018-09-21T13:22:15.118Z,27.40
2018-09-21T13:24:45.512Z,27.60
2018-09-21T13:27:17.873Z,28.60
2018-09-21T13:29:48.630Z,28.30
2018-09-21T13:32:19.426Z,29.10
2018-09-21T13:34:50.836Z,31.60
2018-09-21T13:37:24.149Z,36.20
2018-09-21T13:39:54.889Z,36.50
2018-09-21T13:42:25.350Z,36.40
2018-09-21T13:44:57.735Z,36.80
2018-09-21T13:47:31.426Z,38.60
2018-09-21T13:50:02.961Z,39.00
2018-09-21T13:52:33.703Z,43.80
2018-09-21T13:55:04.101Z,51.10
2018-09-21T13:57:35.087Z,55.40
2018-09-21T14:00:06.690Z,58.60
2018-09-21T14:02:37.214Z,59.50
2018-09-21T14:05:08.430Z,59.40
2018-09-21T14:07:39.360Z,60.20
2018-09-21T14:10:10.773Z,60.70
2018-09-21T14:12:41.976Z,60.10
2018-09-21T14:15:13.723Z,60.30
2018-09-21T14:17:45.450Z,62.00
2018-09-21T14:20:19.626Z,62.70
2018-09-21T14:22:57.633Z,63.30
2018-09-21T14:25:28.874Z,63.70
2018-09-21T14:27:59.320Z,64.30
2018-09-21T14:30:29.750Z,63.60
2018-09-21T14:33:00.126Z,63.50
2018-09-21T14:35:30.473Z,63.90
2018-09-21T14:38:01.357Z,64.20
2018-09-21T14:40:31.694Z,65.30
2018-09-21T14:43:03.000Z,65.40
2018-09-21T14:45:37.739Z,65.80
2018-09-21T14:48:09.420Z,66.00
2018-09-21T14:50:39.955Z,65.90
2018-09-21T14:53:10.386Z,65.50
2018-09-21T14:55:41.509Z,64.10
2018-09-21T14:58:12.443Z,65.20
2018-09-21T15:00:42.848Z,66.60
2018-09-21T15:03:14.131Z,66.80
2018-09-21T15:05:44.685Z,66.30
2018-09-21T15:08:15.055Z,64.90
2018-09-21T15:10:45.631Z,64.70
2018-09-21T15:13:16.316Z,65.00
2018-09-21T15:15:46.609Z,64.60
2018-09-21T15:18:16.986Z,64.30
2018-09-21T15:20:47.311Z,64.50
2018-09-21T15:23:17.862Z,64.70
2018-09-21T15:25:48.265Z,65.00
2018-09-21T15:28:18.829Z,63.50
2018-09-21T15:30:49.115Z,63.70
2018-09-21T15:33:19.510Z,62.90
2018-09-21T15:35:49.862Z,63.40
2018-09-21T15:38:20.767Z,62.60
2018-09-21T15:40:53.104Z,63.80
2018-09-21T15:43:31.017Z,63.40
2018-09-21T15:46:15.407Z,62.80
2018-09-21T15:48:48.497Z,63.60
2018-09-21T15:51:18.775Z,64.60
2018-09-21T15:53:56.016Z,64.20
2018-09-21T15:56:32.861Z,64.50
2018-09-21T15:59:04.080Z,63.20
2018-09-21T16:01:35.076Z,64.30
2018-09-21T16:04:05.785Z,65.30
2018-09-21T16:06:38.134Z,64.70
2018-09-21T16:09:09.205Z,64.00
2018-09-21T16:11:50.993Z,64.20
2018-09-21T16:14:25.959Z,64.30
2018-09-21T16:17:00.027Z,64.60
2018-09-21T16:19:31.014Z,64.10
2018-09-21T16:22:03.104Z,63.80
2018-09-21T16:24:34.024Z,63.90
2018-09-21T16:27:05.842Z,64.20
2018-09-21T16:29:38.501Z,63.90
2018-09-21T16:32:09.943Z,64.00
2018-09-21T16:34:41.397Z,63.90
2018-09-21T16:37:13.198Z,63.10
2018-09-21T16:39:44.102Z,57.00
2018-09-21T16:42:18.033Z,57.90
2018-09-21T16:44:50.450Z,59.40
2018-09-21T16:47:23.947Z,61.80
2018-09-21T16:50:03.031Z,62.10
2018-09-21T16:52:49.463Z,62.90
2018-09-21T16:55:23.657Z,61.80
2018-09-21T16:57:54.890Z,59.20
2018-09-21T17:00:29.007Z,59.70
2018-09-21T17:03:01.994Z,60.00
2018-09-21T17:05:32.469Z,58.60
2018-09-21T17:08:03.289Z,58.60
2018-09-21T17:10:35.066Z,58.70
2018-09-21T17:13:06.322Z,59.50
2018-09-21T17:15:37.090Z,58.90
2018-09-21T17:18:07.688Z,57.40
2018-09-21T17:20:39.399Z,59.30
2018-09-21T17:23:21.051Z,59.40
2018-09-21T17:26:08.482Z,59.40
2018-09-21T17:31:38.700Z,57.80
2018-09-21T17:34:13.665Z,58.20
2018-09-21T17:36:53.947Z,57.80
2018-09-21T17:39:27.555Z,57.70
2018-09-21T17:41:59.614Z,57.50
2018-09-21T17:44:34.983Z,56.80
2018-09-21T17:47:39.491Z,56.30
2018-09-21T17:50:20.230Z,56.70
2018-09-21T17:52:54.261Z,56.20
2018-09-21T17:55:31.574Z,54.60
2018-09-21T17:58:02.045Z,55.00
2018-09-21T18:00:33.563Z,54.40
2018-09-21T18:03:04.410Z,53.60
2018-09-21T18:05:36.387Z,51.50
2018-09-21T18:08:07.022Z,51.90
2018-09-21T18:10:37.450Z,52.00
2018-09-21T18:13:07.993Z,51.90
2018-09-21T18:15:38.459Z,51.10
2018-09-21T18:18:08.982Z,51.40
2018-09-21T18:20:39.693Z,51.20
2018-09-21T18:23:12.654Z,51.10
2018-09-21T18:26:04.649Z,51.50
2018-09-21T18:29:01.552Z,51.40
2018-09-21T18:31:37.856Z,51.10
2018-09-21T18:34:15.745Z,51.40
2018-09-21T18:36:47.350Z,51.60
2018-09-21T18:39:20.919Z,52.10
2018-09-21T18:41:58.529Z,52.30
2018-09-21T18:44:31.567Z,52.70
2018-09-21T18:47:02.391Z,53.50
2018-09-21T18:49:32.718Z,54.10
2018-09-21T18:52:03.059Z,54.20
2018-09-21T18:54:33.576Z,54.30
2018-09-21T18:57:04.389Z,54.60
2018-09-21T18:59:39.152Z,54.70
2018-09-21T19:02:12.207Z,54.60
2018-09-21T19:04:42.946Z,55.20
2018-09-21T19:07:23.153Z,55.60
2018-09-21T19:10:00.051Z,55.40
2018-09-21T19:12:36.591Z,55.60
2018-09-21T19:15:07.310Z,55.50
2018-09-21T19:17:37.677Z,55.30
2018-09-21T19:20:18.763Z,55.60
2018-09-21T19:22:49.389Z,55.40
2018-09-21T19:25:22.270Z,55.50
2018-09-21T19:27:52.764Z,55.60
2018-09-21T19:30:23.313Z,55.90
2018-09-21T19:32:53.675Z,56.20
2018-09-21T19:35:24.087Z,56.40
2018-09-21T19:37:54.979Z,56.40
2018-09-21T19:40:25.364Z,56.30
2018-09-21T19:42:56.479Z,55.90
2018-09-21T19:45:27.258Z,56.20
2018-09-21T19:47:58.404Z,56.00
2018-09-21T19:50:30.943Z,56.20
2018-09-21T19:53:04.532Z,56.10
2018-09-21T19:55:37.529Z,55.90
2018-09-21T19:58:16.962Z,56.00
2018-09-21T20:00:51.469Z,56.20
2018-09-21T20:03:23.596Z,55.70
2018-09-21T20:05:55.067Z,56.20
2018-09-21T20:08:26.430Z,56.30
2018-09-21T20:10:56.874Z,56.50
2018-09-21T20:13:28.336Z,56.60
2018-09-21T20:16:00.044Z,56.50
2018-09-21T20:18:36.632Z,56.40
2018-09-21T20:21:10.024Z,56.20
2018-09-21T20:23:41.123Z,56.30
2018-09-21T20:29:21.045Z,55.30
2018-09-21T20:32:00.760Z,55.60
2018-09-21T20:34:34.577Z,55.40
2018-09-21T20:37:06.369Z,55.00
2018-09-21T20:39:39.614Z,55.20
2018-09-21T20:42:36.826Z,55.40
2018-09-21T20:45:09.493Z,55.20
2018-09-21T20:47:41.007Z,54.80
2018-09-21T20:50:12.512Z,54.50
2018-09-21T20:52:43.759Z,54.20
2018-09-21T20:55:14.185Z,53.50
2018-09-21T20:57:46.797Z,53.40
2018-09-21T21:06:31.917Z,53.60
2018-09-21T21:09:02.350Z,53.70
2018-09-21T21:11:32.646Z,53.80
2018-09-21T21:14:03.412Z,53.80
2018-09-21T21:16:33.833Z,53.10
2018-09-21T21:19:04.382Z,52.80
2018-09-21T21:21:34.730Z,52.50
2018-09-21T21:24:05.053Z,52.30
2018-09-21T21:26:35.433Z,51.70
2018-09-21T21:29:06.294Z,52.00
2018-09-21T21:31:36.662Z,52.10
2018-09-21T21:34:07.498Z,51.50
2018-09-21T21:36:38.012Z,51.10
2018-09-21T21:39:10.140Z,51.10
2018-09-21T21:41:40.713Z,51.30
2018-09-21T21:44:12.130Z,51.20
2018-09-21T21:46:42.546Z,51.20
2018-09-21T21:49:17.631Z,51.20
2018-09-21T21:51:48.215Z,51.10
2018-09-21T21:54:18.636Z,51.40
2018-09-21T21:56:49.050Z,50.70
2018-09-21T21:59:19.675Z,50.70
2018-09-21T22:01:50.092Z,50.90
2018-09-21T22:04:20.557Z,50.80
2018-09-21T22:06:51.105Z,50.60
2018-09-21T22:09:21.453Z,50.30
2018-09-21T22:11:57.232Z,50.00
2018-09-21T22:14:28.154Z,49.60
2018-09-21T22:16:59.125Z,49.40
2018-09-21T22:19:29.482Z,48.90
2018-09-21T22:22:00.133Z,49.00
2018-09-21T22:24:31.121Z,48.40
2018-09-21T22:27:01.392Z,48.70
2018-09-21T22:29:32.149Z,48.80
2018-09-21T22:32:02.538Z,48.80
2018-09-21T22:34:32.947Z,49.10
2018-09-21T22:37:03.641Z,48.80
2018-09-21T22:39:33.965Z,48.80
2018-09-21T22:42:05.029Z,48.80
2018-09-21T22:44:35.477Z,48.70
2018-09-21T22:47:06.279Z,48.80
2018-09-21T22:49:37.067Z,48.50
2018-09-21T22:52:08.143Z,48.20
2018-09-21T22:54:38.536Z,48.20
2018-09-21T22:57:10.086Z,48.10
2018-09-21T22:59:42.726Z,48.10
2018-09-21T23:02:13.180Z,47.20
2018-09-21T23:04:45.314Z,47.90
2018-09-21T23:07:17.878Z,47.90
2018-09-21T23:09:48.985Z,48.10
2018-09-21T23:12:20.207Z,48.40
2018-09-21T23:14:50.746Z,48.10
2018-09-21T23:17:22.362Z,47.70
2018-09-21T23:19:52.670Z,47.70
2018-09-21T23:22:23.071Z,47.70
2018-09-21T23:24:53.374Z,47.70
2018-09-21T23:27:23.673Z,48.10
2018-09-21T23:29:54.031Z,48.20
2018-09-21T23:32:24.650Z,48.00
2018-09-21T23:34:55.005Z,47.70
2018-09-21T23:37:25.829Z,47.10
2018-09-21T23:39:56.686Z,48.30
2018-09-21T23:42:27.015Z,47.60
2018-09-21T23:44:57.370Z,48.10
2018-09-21T23:47:27.837Z,48.20
2018-09-21T23:49:58.414Z,48.30
2018-09-21T23:52:28.978Z,48.30
2018-09-21T23:54:59.739Z,48.30
2018-09-21T23:57:30.066Z,48.30
